Decoded Metar for KCTB (CUTBANK in MT, USA) (IATA:CTB) | Meteo·Mobile Aviation Weather
aviador You're here:

KCTB Decoded Metar

CUTBANK in MT, USA
Report Time2019-04-19 21:56:00
UTC Time2019-04-19 22:15:03
Flight Rules vfr VFR
Wind250° at 12 kt
W.Decomp.*RWY 23: 12.0 kt HW 0.6 kt RCW
RWY 31: 2.7 kt HW 11.7 kt LCW
Visibility9999 m
Phenomena:N/A
Clouds:Broken 065 Hf
Broken 080 Hf
Expected CloudBase > 6,000 ft AGL from Temp-Dew spread
Ceiling6,500 ft
Temp18°C (ISA +11)
Dew Point03°C (37% RH)
AAT12.2°C
QNH1008 hPa
Density Alt5,371 ft
Elevation3,855 ft
Report Wrong Elevation
Raw Report
KCTB 192156Z AUTO 25012KT 10SM BKN065 BKN080 18/03 A2976 RMK AO2
PK WND 25027/2058 SLP059 T01780033=

Extra information for KCTB:More info

Metar Taf Metar & Taf Last 4 Metars F.Rules Stats Wind Profile Meteogram Temp Stats Airport Information Weather charts Add Link Nearby VenuesMetar ALERT Operation Metar Decoded Social comments

AIRNAV info for KCTB